Schneifelwetter: Wetterstation Hallschlag, 537 m . NN
Wetterdaten: Samstag, 06.02.2010
Datum Zeit Temp. A. Feuchte A. Luftdruck Regen Wind Richtung Richtung Sonnenschein Helligkeit T Regen Taupunkt Windchill
06.02.2010 00:00 1,0 C 99 % 1008 hPa 0,0 l/m 12,3 km/h (3 Bft) W-SW22.5 250 0 min 0 lux 0,00 min 0,9 C -4,1 C
06.02.2010 00:15 0,9 C 99 % 1008 hPa 0,0 l/m 10,2 km/h (2 Bft) W-SW22.5 250 0 min 0 lux 0,00 min 0,8 C -2,6 C
06.02.2010 00:30 0,8 C 99 % 1008 hPa 0,0 l/m 5,5 km/h (1 Bft) SW22.5 230 0 min 0 lux 0,00 min 0,7 C 0,8 C
06.02.2010 00:45 0,9 C 99 % 1008 hPa 0,0 l/m 9,7 km/h (2 Bft) W-SW22.5 240 0 min 0 lux 0,00 min 0,8 C -2,2 C
06.02.2010 01:00 0,8 C 99 % 1008 hPa 0,0 l/m 7,5 km/h (2 Bft) S-SW22.5 195 0 min 0 lux 0,00 min 0,7 C -0,3 C
06.02.2010 01:15 0,8 C 99 % 1008 hPa 0,0 l/m 7,6 km/h (2 Bft) SW22.5 225 0 min 0 lux 0,00 min 0,7 C -0,4 C
06.02.2010 01:30 0,8 C 99 % 1008 hPa 0,0 l/m 9,0 km/h (2 Bft) S-SW45 210 0 min 0 lux 0,00 min 0,7 C -1,7 C
06.02.2010 01:45 0,8 C 99 % 1008 hPa 0,0 l/m 0,1 km/h (0 Bft) S-SW 205 0 min 0 lux 0,00 min 0,7 C 0,8 C
06.02.2010 02:00 0,7 C 99 % 1008 hPa 0,0 l/m 0,3 km/h (0 Bft) S-SW 205 0 min 0 lux 0,00 min 0,6 C 0,7 C
06.02.2010 02:15 0,7 C 99 % 1008 hPa 0,0 l/m 3,6 km/h (1 Bft) S-SW 205 0 min 0 lux 0,00 min 0,6 C 0,7 C
06.02.2010 02:30 0,7 C 99 % 1008 hPa 0,0 l/m 6,8 km/h (2 Bft) W-SW 245 0 min 0 lux 0,00 min 0,6 C 0,3 C
06.02.2010 02:45 0,7 C 99 % 1008 hPa 0,0 l/m 5,2 km/h (1 Bft) W-SW 245 0 min 0 lux 0,00 min 0,6 C 0,7 C
06.02.2010 03:00 0,7 C 99 % 1008 hPa 0,0 l/m 0,2 km/h (0 Bft) W-SW 240 0 min 0 lux 0,00 min 0,6 C 0,7 C
06.02.2010 03:15 0,7 C 99 % 1008 hPa 0,0 l/m 0,1 km/h (0 Bft) W-SW 240 0 min 0 lux 0,00 min 0,6 C 0,7 C
06.02.2010 03:30 0,7 C 99 % 1008 hPa 0,0 l/m 0,0 km/h (0 Bft) W-SW 240 0 min 0 lux 0,00 min 0,6 C 0,7 C
06.02.2010 03:45 0,7 C 99 % 1008 hPa 0,0 l/m 0,0 km/h (0 Bft) W-SW 240 0 min 0 lux 0,00 min 0,6 C 0,7 C
06.02.2010 04:01 0,7 C 99 % 1008 hPa 0,0 l/m 0,0 km/h (0 Bft) W-SW 240 0 min 0 lux 0,00 min 0,6 C 0,7 C
06.02.2010 04:15 0,8 C 99 % 1008 hPa 0,0 l/m 0,0 km/h (0 Bft) W-SW 240 0 min 0 lux 0,00 min 0,7 C 0,8 C
06.02.2010 04:30 0,7 C 99 % 1008 hPa 0,0 l/m 0,0 km/h (0 Bft) W-SW 240 0 min 0 lux 0,00 min 0,6 C 0,7 C
06.02.2010 04:45 0,7 C 99 % 1008 hPa 0,0 l/m 5,8 km/h (2 Bft) SW22.5 220 0 min 0 lux 0,00 min 0,6 C 0,7 C
06.02.2010 05:00 1,0 C 99 % 1008 hPa 0,0 l/m 5,7 km/h (1 Bft) S-SW 210 0 min 0 lux 0,00 min 0,9 C 1,0 C
06.02.2010 05:15 0,9 C 99 % 1008 hPa 0,0 l/m 0,0 km/h (0 Bft) S-SW 205 0 min 0 lux 0,00 min 0,8 C 0,9 C
06.02.2010 05:30 0,8 C 99 % 1007 hPa 0,0 l/m 0,0 km/h (0 Bft) S-SW 205 0 min 0 lux 0,00 min 0,7 C 0,8 C
06.02.2010 05:45 0,7 C 99 % 1007 hPa 0,0 l/m 0,0 km/h (0 Bft) S-SW 205 0 min 0 lux 0,00 min 0,6 C 0,7 C
06.02.2010 06:00 0,8 C 99 % 1007 hPa 0,0 l/m 0,0 km/h (0 Bft) S-SW 205 0 min 0 lux 0,00 min 0,7 C 0,8 C
06.02.2010 06:15 0,8 C 99 % 1007 hPa 0,0 l/m 2,1 km/h (1 Bft) S-SW 205 0 min 0 lux 0,00 min 0,7 C 0,8 C
06.02.2010 06:30 0,8 C 99 % 1007 hPa 0,0 l/m 0,0 km/h (0 Bft) S-SW 205 0 min 0 lux 0,00 min 0,7 C 0,8 C
06.02.2010 06:45 0,8 C 99 % 1007 hPa 0,0 l/m 0,0 km/h (0 Bft) S-SW 205 0 min 0 lux 0,00 min 0,7 C 0,8 C
06.02.2010 07:00 0,8 C 99 % 1007 hPa 0,0 l/m 0,0 km/h (0 Bft) S-SW 205 0 min 0 lux 0,00 min 0,7 C 0,8 C
06.02.2010 07:15 0,7 C 99 % 1007 hPa 0,0 l/m 0,0 km/h (0 Bft) S-SW 205 0 min 0 lux 0,00 min 0,6 C 0,7 C
06.02.2010 07:30 0,7 C 99 % 1008 hPa 0,0 l/m 0,0 km/h (0 Bft) S-SW 205 0 min 0 lux 0,00 min 0,6 C 0,7 C
06.02.2010 07:45 0,7 C 99 % 1007 hPa 0,0 l/m 0,0 km/h (0 Bft) S-SW 205 0 min 0 lux 0,00 min 0,6 C 0,7 C
06.02.2010 08:00 0,7 C 99 % 1007 hPa 0,0 l/m 4,3 km/h (1 Bft) S-SW 205 0 min 180 lux 0,00 min 0,6 C 0,7 C
06.02.2010 08:15 0,7 C 99 % 1008 hPa 0,0 l/m 4,6 km/h (1 Bft) S-SW 205 0 min 592 lux 0,00 min 0,6 C 0,7 C
06.02.2010 08:30 0,8 C 99 % 1008 hPa 0,0 l/m 5,2 km/h (1 Bft) S-SW 205 0 min 1,30 klux 0,00 min 0,7 C 0,8 C
06.02.2010 08:45 0,9 C 99 % 1008 hPa 0,0 l/m 0,0 km/h (0 Bft) S-SW 205 0 min 2,34 klux 0,00 min 0,8 C 0,9 C
06.02.2010 09:00 1,1 C 99 % 1008 hPa 0,0 l/m 0,0 km/h (0 Bft) S-SW 205 0 min 4,25 klux 0,00 min 1,0 C 1,1 C
06.02.2010 09:15 1,1 C 99 % 1008 hPa 0,0 l/m 5,7 km/h (1 Bft) S 175 0 min 5,20 klux 0,00 min 1,0 C 1,1 C
06.02.2010 09:30 1,2 C 99 % 1008 hPa 0,0 l/m 4,1 km/h (1 Bft) S 175 0 min 5,76 klux 0,00 min 1,1 C 1,2 C
06.02.2010 09:45 1,4 C 99 % 1008 hPa 0,0 l/m 4,7 km/h (1 Bft) S 175 0 min 9,1 klux 0,00 min 1,3 C 1,4 C
06.02.2010 10:00 1,6 C 99 % 1008 hPa 0,0 l/m 6,7 km/h (2 Bft) S-SO22.5 150 0 min 14,1 klux 0,00 min 1,5 C 1,3 C
06.02.2010 10:15 1,9 C 99 % 1008 hPa 0,0 l/m 9,1 km/h (2 Bft) S-SO22.5 160 0 min 13,3 klux 0,00 min 1,8 C -0,6 C
06.02.2010 10:30 2,0 C 99 % 1008 hPa 0,0 l/m 4,7 km/h (1 Bft) S 170 0 min 14,7 klux 0,00 min 1,9 C 2,0 C
06.02.2010 10:45 2,1 C 99 % 1008 hPa 0,0 l/m 6,7 km/h (2 Bft) S-SO 160 0 min 16,0 klux 0,00 min 2,0 C 1,8 C
06.02.2010 11:00 2,3 C 99 % 1009 hPa 0,0 l/m 7,4 km/h (2 Bft) S-SO 155 0 min 16,5 klux 0,00 min 2,2 C 1,3 C
06.02.2010 11:15 2,3 C 99 % 1009 hPa 0,0 l/m 9,8 km/h (2 Bft) S-SO 155 0 min 16,2 klux 0,00 min 2,2 C -0,8 C
06.02.2010 11:30 2,4 C 99 % 1009 hPa 0,0 l/m 3,2 km/h (1 Bft) O-NO 70 0 min 15,2 klux 0,00 min 2,3 C 2,4 C
06.02.2010 11:45 2,7 C 99 % 1009 hPa 0,0 l/m 1,3 km/h (1 Bft) S67.5 190 0 min 20,0 klux 0,00 min 2,6 C 2,7 C
06.02.2010 12:00 3,1 C 99 % 1009 hPa 0,0 l/m 5,2 km/h (1 Bft) S-SW 205 0 min 26,4 klux 0,00 min 3,0 C 3,1 C
06.02.2010 12:15 3,2 C 99 % 1009 hPa 0,0 l/m 8,5 km/h (2 Bft) SW 220 15 min 26,8 klux 0,00 min 3,1 C 1,3 C
06.02.2010 12:30 3,9 C 99 % 1009 hPa 0,0 l/m 7,0 km/h (2 Bft) SW 225 15 min 36,1 klux 0,00 min 3,8 C 3,4 C
06.02.2010 12:45 4,6 C 99 % 1009 hPa 0,0 l/m 4,2 km/h (1 Bft) W-SW 240 15 min 39,7 klux 0,00 min 4,5 C 4,6 C
06.02.2010 13:00 4,6 C 99 % 1009 hPa 0,0 l/m 0,6 km/h (0 Bft) SW 225 15 min 39,6 klux 0,00 min 4,5 C 4,6 C
06.02.2010 13:15 4,6 C 99 % 1009 hPa 0,0 l/m 8,3 km/h (2 Bft) W-SW 250 15 min 34,2 klux 0,00 min 4,5 C 2,9 C
06.02.2010 13:30 4,7 C 99 % 1009 hPa 0,0 l/m 7,9 km/h (2 Bft) W-SW22.5 245 15 min 37,0 klux 0,00 min 4,6 C 3,4 C
06.02.2010 13:45 4,5 C 99 % 1009 hPa 0,0 l/m 6,2 km/h (2 Bft) W-SW 255 15 min 29,8 klux 0,00 min 4,4 C 4,5 C
06.02.2010 14:00 4,6 C 98 % 1010 hPa 0,0 l/m 6,7 km/h (2 Bft) W-SW 250 15 min 29,4 klux 0,00 min 4,3 C 4,3 C
06.02.2010 14:15 4,3 C 97 % 1010 hPa 0,0 l/m 5,4 km/h (1 Bft) W-SW 250 15 min 29,4 klux 0,00 min 3,9 C 4,3 C
06.02.2010 14:30 3,8 C 96 % 1010 hPa 0,0 l/m 0,0 km/h (0 Bft) W 260 0 min 21,9 klux 0,00 min 3,2 C 3,8 C
06.02.2010 14:45 3,5 C 96 % 1010 hPa 0,0 l/m 0,0 km/h (0 Bft) W 270 0 min 20,2 klux 0,00 min 2,9 C 3,5 C
06.02.2010 15:00 3,5 C 96 % 1010 hPa 0,0 l/m 0,0 km/h (0 Bft) W 275 0 min 18,8 klux 0,00 min 2,9 C 3,5 C
06.02.2010 15:15 3,5 C 96 % 1010 hPa 0,0 l/m 0,0 km/h (0 Bft) W 275 0 min 17,4 klux 0,00 min 2,9 C 3,5 C
06.02.2010 15:30 3,9 C 97 % 1010 hPa 0,0 l/m 0,0 km/h (0 Bft) W 270 0 min 18,0 klux 0,00 min 3,5 C 3,9 C
06.02.2010 15:45 3,7 C 96 % 1010 hPa 0,0 l/m 0,0 km/h (0 Bft) W 260 0 min 17,6 klux 0,00 min 3,1 C 3,7 C
06.02.2010 16:00 3,4 C 96 % 1010 hPa 0,0 l/m 0,0 km/h (0 Bft) W 270 0 min 13,4 klux 0,00 min 2,8 C 3,4 C
06.02.2010 16:15 3,3 C 96 % 1011 hPa 0,0 l/m 0,0 km/h (0 Bft) W 275 0 min 18,6 klux 0,00 min 2,7 C 3,3 C
06.02.2010 16:30 3,3 C 97 % 1011 hPa 0,0 l/m 0,0 km/h (0 Bft) W 275 0 min 25,4 klux 0,00 min 2,9 C 3,3 C
06.02.2010 16:45 3,2 C 96 % 1011 hPa 0,0 l/m 0,0 km/h (0 Bft) W 275 0 min 19,7 klux 0,00 min 2,6 C 3,2 C
06.02.2010 17:00 3,1 C 97 % 1011 hPa 0,0 l/m 0,0 km/h (0 Bft) W 275 0 min 16,6 klux 0,00 min 2,7 C 3,1 C
06.02.2010 17:15 2,8 C 97 % 1011 hPa 0,0 l/m 0,0 km/h (0 Bft) W 275 0 min 8,61 klux 0,00 min 2,4 C 2,8 C
06.02.2010 17:30 2,3 C 97 % 1011 hPa 0,0 l/m 0,0 km/h (0 Bft) W 275 0 min 2,82 klux 0,00 min 1,9 C 2,3 C
06.02.2010 17:45 1,9 C 98 % 1011 hPa 0,0 l/m 0,0 km/h (0 Bft) W 275 0 min 969 lux 0,00 min 1,6 C 1,9 C
06.02.2010 18:00 1,3 C 97 % 1012 hPa 0,0 l/m 0,0 km/h (0 Bft) W 275 0 min 217 lux 0,00 min 0,9 C 1,3 C
06.02.2010 18:15 0,8 C 98 % 1012 hPa 0,0 l/m 0,0 km/h (0 Bft) W 275 0 min 24 lux 0,00 min 0,5 C 0,8 C
06.02.2010 18:30 0,4 C 98 % 1012 hPa 0,0 l/m 0,0 km/h (0 Bft) W 275 0 min 3 lux 0,00 min 0,1 C 0,4 C
06.02.2010 18:45 0,1 C 98 % 1012 hPa 0,0 l/m 0,0 km/h (0 Bft) W 275 0 min 0 lux 0,00 min -0,2 C 0,1 C
06.02.2010 19:00 -0,2 C 98 % 1012 hPa 0,0 l/m 0,0 km/h (0 Bft) W 275 0 min 0 lux 0,00 min -0,5 C -0,2 C
06.02.2010 19:15 -0,2 C 98 % 1012 hPa 0,0 l/m 0,0 km/h (0 Bft) W 275 0 min 0 lux 0,00 min -0,5 C -0,2 C
06.02.2010 19:30 0,0 C 99 % 1013 hPa 0,0 l/m 0,0 km/h (0 Bft) W 275 0 min 0 lux 0,00 min -0,1 C 0,0 C
06.02.2010 19:45 0,1 C 99 % 1013 hPa 0,0 l/m 0,0 km/h (0 Bft) W 275 0 min 0 lux 0,00 min -0,0 C 0,1 C
06.02.2010 20:00 0,1 C 99 % 1013 hPa 0,0 l/m 0,0 km/h (0 Bft) W 275 0 min 0 lux 0,00 min -0,0 C 0,1 C
06.02.2010 20:15 0,2 C 99 % 1013 hPa 0,0 l/m 0,0 km/h (0 Bft) W 275 0 min 0 lux 0,00 min 0,1 C 0,2 C
06.02.2010 20:30 0,2 C 99 % 1013 hPa 0,0 l/m 0,0 km/h (0 Bft) W 275 0 min 0 lux 0,00 min 0,1 C 0,2 C
06.02.2010 20:45 0,3 C 99 % 1013 hPa 0,0 l/m 0,0 km/h (0 Bft) W 275 0 min 0 lux 0,00 min 0,2 C 0,3 C
06.02.2010 21:00 0,7 C 99 % 1014 hPa 0,0 l/m 8,1 km/h (2 Bft) NW45 325 0 min 0 lux 0,00 min 0,6 C -1,0 C
06.02.2010 21:15 1,1 C 99 % 1014 hPa 0,0 l/m 6,6 km/h (2 Bft) N-NW22.5 345 0 min 0 lux 0,00 min 1,0 C 0,9 C
06.02.2010 21:30 1,1 C 99 % 1014 hPa 0,0 l/m 4,6 km/h (1 Bft) N 350 0 min 0 lux 0,00 min 1,0 C 1,1 C
06.02.2010 21:45 1,2 C 99 % 1014 hPa 0,0 l/m 7,5 km/h (2 Bft) NW45 320 0 min 0 lux 0,00 min 1,1 C 0,1 C
06.02.2010 22:00 1,2 C 99 % 1014 hPa 0,0 l/m 5,8 km/h (2 Bft) NW22.5 325 0 min 0 lux 0,00 min 1,1 C 1,2 C
06.02.2010 22:15 1,2 C 99 % 1014 hPa 0,0 l/m 0,0 km/h (0 Bft) NW 310 0 min 0 lux 0,00 min 1,1 C 1,2 C
06.02.2010 22:31 1,1 C 99 % 1014 hPa 0,0 l/m 0,0 km/h (0 Bft) NW 310 0 min 0 lux 0,00 min 1,0 C 1,1 C
06.02.2010 22:45 1,0 C 99 % 1014 hPa 0,0 l/m 0,0 km/h (0 Bft) NW 310 0 min 0 lux 0,00 min 0,9 C 1,0 C
06.02.2010 23:00 0,9 C 99 % 1015 hPa 0,0 l/m 0,0 km/h (0 Bft) NW 310 0 min 0 lux 0,00 min 0,8 C 0,9 C
06.02.2010 23:15 0,9 C 99 % 1015 hPa 0,0 l/m 0,0 km/h (0 Bft) NW 310 0 min 0 lux 0,00 min 0,8 C 0,9 C
06.02.2010 23:30 0,8 C 99 % 1015 hPa 0,0 l/m 0,0 km/h (0 Bft) NW 310 0 min 0 lux 0,00 min 0,7 C 0,8 C
06.02.2010 23:45 0,8 C 99 % 1015 hPa 0,0 l/m 0,0 km/h (0 Bft) NW 310 0 min 0 lux 0,00 min 0,7 C 0,8 C
_ Min-Zeit 19:00 14:30 05:30 - 03:30 - - - - - 19:00 00:00
Minimum _ -0,2 C 96 % 1007 hPa - 0,0 km/h (0 Bft) - - - - - -0,5 C -4,1 C
_ Max-Zeit 13:30 00:00 23:00 00:00 00:00 - - 12:15 12:45 00:00 13:30 12:45
Maximum _ 4,7 C 99 % 1015 hPa 0,0 l/m 12,3 km/h
W-SW (3 Bft)
- - 15 min 39,7 klux 0,00 min 4,6 C 4,6 C
Durchschnitt _ 1,6 C 99 % 1010 hPa #0,0 l/m 2,7 km/h (1 Bft) W-SW - #2:15 h 7,33 klux #0 min. 1,4 C 1,2 C